Terminal Aerodrome Forecast
Issued by NWS North Platte, NE

Home | Current Version | Previous Version | Text Only | Print | Product List | Glossary On
Versions: 1 2 3 4 5 6 7 8 9 10 11 12 13 14 15 16 17 18 19 20 21 22 23 24 25
000
FTUS43 KLBF 171500 AAA
TAFVTN
TAF AMD
KVTN 171533Z 1716/1812 15006KT 5SM BR OVC004
      TEMPO 1716/1718 2SM BR
     FM171900 15010KT P6SM OVC012
     FM180400 16008KT P6SM OVC008=

USA.gov is the U.S. government's official web portal to all federal, state and local government web resources and services.